sensor_id;sensor_type;location;lat;lon;timestamp;temperature;humidity
51902;DHT22;37929;53.218;6.548;2022-12-04T15:36:36;2.80;99.90
51902;DHT22;37929;53.218;6.548;2022-12-04T15:39:11;3.20;99.90
51902;DHT22;37929;53.218;6.548;2022-12-04T15:41:38;3.20;99.90
51902;DHT22;37929;53.218;6.548;2022-12-04T15:44:30;3.20;99.90
51902;DHT22;37929;53.218;6.548;2022-12-04T15:47:02;3.30;99.90
51902;DHT22;37929;53.218;6.548;2022-12-04T15:49:29;3.30;99.90
51902;DHT22;37929;53.218;6.548;2022-12-04T15:52:12;3.30;99.90
51902;DHT22;37929;53.218;6.548;2022-12-04T15:54:55;3.30;99.90
51902;DHT22;37929;53.218;6.548;2022-12-04T15:57:26;3.30;99.90
51902;DHT22;37929;53.218;6.548;2022-12-04T15:59:53;3.40;99.90
51902;DHT22;37929;53.218;6.548;2022-12-04T16:02:29;3.90;99.90
51902;DHT22;37929;53.218;6.548;2022-12-04T16:04:56;3.40;99.90
51902;DHT22;37929;53.218;6.548;2022-12-04T16:07:28;4.20;99.90
51902;DHT22;37929;53.218;6.548;2022-12-04T16:10:00;3.50;99.90
51902;DHT22;37929;53.218;6.548;2022-12-04T16:12:28;3.50;99.90
51902;DHT22;37929;53.218;6.548;2022-12-04T16:14:55;3.50;99.90
51902;DHT22;37929;53.218;6.548;2022-12-04T16:17:29;3.50;99.90
51902;DHT22;37929;53.218;6.548;2022-12-04T16:19:56;3.60;99.90
51902;DHT22;37929;53.218;6.548;2022-12-04T16:22:23;3.50;99.90
51902;DHT22;37929;53.218;6.548;2022-12-04T16:24:49;3.50;99.90
51902;DHT22;37929;53.218;6.548;2022-12-04T16:27:17;3.80;99.90
51902;DHT22;37929;53.218;6.548;2022-12-04T16:29:45;3.60;99.90
51902;DHT22;37929;53.218;6.548;2022-12-04T16:32:13;3.60;99.90
51902;DHT22;37929;53.218;6.548;2022-12-04T16:34:40;3.80;99.90
51902;DHT22;37929;53.218;6.548;2022-12-04T16:37:15;3.70;99.90
51902;DHT22;37929;53.218;6.548;2022-12-04T16:39:41;3.70;99.90
51902;DHT22;37929;53.218;6.548;2022-12-04T16:42:28;3.90;99.90
51902;DHT22;37929;53.218;6.548;2022-12-04T16:44:54;3.70;99.90
51902;DHT22;37929;53.218;6.548;2022-12-04T16:47:20;4.00;99.90
51902;DHT22;37929;53.218;6.548;2022-12-04T16:49:48;3.80;99.90
51902;DHT22;37929;53.218;6.548;2022-12-04T16:52:14;3.70;99.90
51902;DHT22;37929;53.218;6.548;2022-12-04T16:54:40;4.10;99.90
51902;DHT22;37929;53.218;6.548;2022-12-04T16:57:07;3.90;99.90
51902;DHT22;37929;53.218;6.548;2022-12-04T16:59:33;3.70;99.90
51902;DHT22;37929;53.218;6.548;2022-12-04T17:02:00;4.60;99.90
51902;DHT22;37929;53.218;6.548;2022-12-04T17:04:26;3.80;99.90
51902;DHT22;37929;53.218;6.548;2022-12-04T17:06:52;3.80;99.90
51902;DHT22;37929;53.218;6.548;2022-12-04T17:09:18;3.80;99.90
51902;DHT22;37929;53.218;6.548;2022-12-04T17:11:44;3.80;99.90
51902;DHT22;37929;53.218;6.548;2022-12-04T17:14:10;3.80;99.90
51902;DHT22;37929;53.218;6.548;2022-12-04T17:16:41;4.60;99.90
51902;DHT22;37929;53.218;6.548;2022-12-04T17:19:10;3.90;99.90
51902;DHT22;37929;53.218;6.548;2022-12-04T17:21:36;3.90;99.90
51902;DHT22;37929;53.218;6.548;2022-12-04T17:24:03;3.90;99.90
51902;DHT22;37929;53.218;6.548;2022-12-04T17:26:29;3.90;99.90
51902;DHT22;37929;53.218;6.548;2022-12-04T17:28:54;3.90;99.90
51902;DHT22;37929;53.218;6.548;2022-12-04T17:31:23;3.90;99.90
51902;DHT22;37929;53.218;6.548;2022-12-04T17:33:49;4.00;99.90
51902;DHT22;37929;53.218;6.548;2022-12-04T17:36:23;4.50;99.90
51902;DHT22;37929;53.218;6.548;2022-12-04T17:38:58;4.00;99.90
51902;DHT22;37929;53.218;6.548;2022-12-04T17:41:26;3.90;99.90
51902;DHT22;37929;53.218;6.548;2022-12-04T17:43:51;3.90;99.90
51902;DHT22;37929;53.218;6.548;2022-12-04T17:46:19;3.90;99.90
51902;DHT22;37929;53.218;6.548;2022-12-04T17:48:46;4.10;99.90
51902;DHT22;37929;53.218;6.548;2022-12-04T17:51:18;4.50;99.90
51902;DHT22;37929;53.218;6.548;2022-12-04T17:53:45;4.00;99.90
51902;DHT22;37929;53.218;6.548;2022-12-04T17:56:13;4.10;99.90
51902;DHT22;37929;53.218;6.548;2022-12-04T17:58:41;4.00;99.90
51902;DHT22;37929;53.218;6.548;2022-12-04T18:01:10;4.00;99.90
51902;DHT22;37929;53.218;6.548;2022-12-04T18:03:37;4.10;99.90
51902;DHT22;37929;53.218;6.548;2022-12-04T18:06:14;4.10;99.90
51902;DHT22;37929;53.218;6.548;2022-12-04T18:08:40;4.10;99.90
51902;DHT22;37929;53.218;6.548;2022-12-04T18:11:06;4.70;99.90
51902;DHT22;37929;53.218;6.548;2022-12-04T18:13:33;4.10;99.90
51902;DHT22;37929;53.218;6.548;2022-12-04T18:16:03;4.10;99.90
51902;DHT22;37929;53.218;6.548;2022-12-04T18:18:29;4.10;99.90
51902;DHT22;37929;53.218;6.548;2022-12-04T18:21:04;4.20;99.90
51902;DHT22;37929;53.218;6.548;2022-12-04T18:23:30;4.20;99.90
51902;DHT22;37929;53.218;6.548;2022-12-04T18:25:57;4.20;99.90
51902;DHT22;37929;53.218;6.548;2022-12-04T18:28:23;4.20;99.90
51902;DHT22;37929;53.218;6.548;2022-12-04T18:30:49;4.40;99.90
51902;DHT22;37929;53.218;6.548;2022-12-04T18:33:15;4.20;99.90
51902;DHT22;37929;53.218;6.548;2022-12-04T18:35:40;4.20;99.90
51902;DHT22;37929;53.218;6.548;2022-12-04T18:38:06;4.20;99.90
51902;DHT22;37929;53.218;6.548;2022-12-04T18:40:35;4.20;99.90
51902;DHT22;37929;53.218;6.548;2022-12-04T18:43:01;4.30;99.90
51902;DHT22;37929;53.218;6.548;2022-12-04T18:45:27;4.30;99.90
51902;DHT22;37929;53.218;6.548;2022-12-04T18:47:53;4.30;99.90
51902;DHT22;37929;53.218;6.548;2022-12-04T18:50:18;4.30;99.90
51902;DHT22;37929;53.218;6.548;2022-12-04T18:52:44;4.30;99.90
51902;DHT22;37929;53.218;6.548;2022-12-04T18:55:10;4.30;99.90
51902;DHT22;37929;53.218;6.548;2022-12-04T18:57:36;4.30;99.90
51902;DHT22;37929;53.218;6.548;2022-12-04T19:00:02;4.30;99.90
51902;DHT22;37929;53.218;6.548;2022-12-04T19:02:28;4.30;99.90
51902;DHT22;37929;53.218;6.548;2022-12-04T19:04:54;4.30;99.90
51902;DHT22;37929;53.218;6.548;2022-12-04T19:07:19;4.50;99.90
51902;DHT22;37929;53.218;6.548;2022-12-04T19:09:45;4.40;99.90
51902;DHT22;37929;53.218;6.548;2022-12-04T19:12:11;4.40;99.90
51902;DHT22;37929;53.218;6.548;2022-12-04T19:14:36;4.40;99.90
51902;DHT22;37929;53.218;6.548;2022-12-04T19:17:04;4.40;99.90
51902;DHT22;37929;53.218;6.548;2022-12-04T19:19:30;4.40;99.90
51902;DHT22;37929;53.218;6.548;2022-12-04T19:21:55;4.30;99.90
51902;DHT22;37929;53.218;6.548;2022-12-04T19:24:21;5.00;99.90
51902;DHT22;37929;53.218;6.548;2022-12-04T19:26:47;4.70;99.90
51902;DHT22;37929;53.218;6.548;2022-12-04T19:29:13;4.40;99.90
51902;DHT22;37929;53.218;6.548;2022-12-04T19:31:40;4.40;99.90
51902;DHT22;37929;53.218;6.548;2022-12-04T19:34:06;4.40;99.90
51902;DHT22;37929;53.218;6.548;2022-12-04T19:36:33;4.40;99.90
51902;DHT22;37929;53.218;6.548;2022-12-04T19:39:00;5.10;99.90
51902;DHT22;37929;53.218;6.548;2022-12-04T19:41:28;4.40;99.90
51902;DHT22;37929;53.218;6.548;2022-12-04T19:44:02;4.50;99.90
51902;DHT22;37929;53.218;6.548;2022-12-04T19:46:29;4.50;99.90
51902;DHT22;37929;53.218;6.548;2022-12-04T19:49:01;5.00;99.90
51902;DHT22;37929;53.218;6.548;2022-12-04T19:51:29;4.50;99.90
51902;DHT22;37929;53.218;6.548;2022-12-04T19:53:59;4.50;99.90
51902;DHT22;37929;53.218;6.548;2022-12-04T19:56:26;4.50;99.90
51902;DHT22;37929;53.218;6.548;2022-12-04T19:58:53;4.50;99.90
51902;DHT22;37929;53.218;6.548;2022-12-04T20:01:21;4.50;99.90
51902;DHT22;37929;53.218;6.548;2022-12-04T20:03:53;4.50;99.90
51902;DHT22;37929;53.218;6.548;2022-12-04T20:06:21;4.50;99.90
51902;DHT22;37929;53.218;6.548;2022-12-04T20:08:55;4.50;99.90
51902;DHT22;37929;53.218;6.548;2022-12-04T20:11:22;4.60;99.90
51902;DHT22;37929;53.218;6.548;2022-12-04T20:13:48;4.60;99.90
51902;DHT22;37929;53.218;6.548;2022-12-04T20:16:17;5.10;99.90
51902;DHT22;37929;53.218;6.548;2022-12-04T20:18:44;4.60;99.90
51902;DHT22;37929;53.218;6.548;2022-12-04T20:21:10;4.60;99.90
51902;DHT22;37929;53.218;6.548;2022-12-04T20:23:37;4.60;99.90
51902;DHT22;37929;53.218;6.548;2022-12-04T20:26:05;4.60;99.90
51902;DHT22;37929;53.218;6.548;2022-12-04T20:28:31;4.60;99.90
51902;DHT22;37929;53.218;6.548;2022-12-04T20:30:57;4.60;99.90
51902;DHT22;37929;53.218;6.548;2022-12-04T20:33:26;4.60;99.90
51902;DHT22;37929;53.218;6.548;2022-12-04T20:35:52;4.60;99.90
51902;DHT22;37929;53.218;6.548;2022-12-04T20:38:18;4.60;99.90
51902;DHT22;37929;53.218;6.548;2022-12-04T20:40:44;4.70;99.90
51902;DHT22;37929;53.218;6.548;2022-12-04T20:43:10;4.70;99.90
51902;DHT22;37929;53.218;6.548;2022-12-04T20:45:35;4.60;99.90
51902;DHT22;37929;53.218;6.548;2022-12-04T20:48:01;5.50;99.90
51902;DHT22;37929;53.218;6.548;2022-12-04T20:50:27;5.20;99.90
51902;DHT22;37929;53.218;6.548;2022-12-04T20:52:53;4.70;99.90
51902;DHT22;37929;53.218;6.548;2022-12-04T20:55:18;4.70;99.90
51902;DHT22;37929;53.218;6.548;2022-12-04T20:57:44;4.70;99.90
51902;DHT22;37929;53.218;6.548;2022-12-04T21:00:11;5.20;99.90
51902;DHT22;37929;53.218;6.548;2022-12-04T21:02:37;4.70;99.90
51902;DHT22;37929;53.218;6.548;2022-12-04T21:05:03;4.70;99.90
51902;DHT22;37929;53.218;6.548;2022-12-04T21:07:29;4.70;99.90
51902;DHT22;37929;53.218;6.548;2022-12-04T21:09:54;4.70;99.90
51902;DHT22;37929;53.218;6.548;2022-12-04T21:12:22;5.40;99.90
51902;DHT22;37929;53.218;6.548;2022-12-04T21:15:07;4.70;99.90
51902;DHT22;37929;53.218;6.548;2022-12-04T21:17:52;4.80;99.90
51902;DHT22;37929;53.218;6.548;2022-12-04T21:20:17;4.70;99.90
51902;DHT22;37929;53.218;6.548;2022-12-04T21:22:43;4.80;99.90
51902;DHT22;37929;53.218;6.548;2022-12-04T21:25:09;4.80;99.90
51902;DHT22;37929;53.218;6.548;2022-12-04T21:27:35;4.90;99.90
51902;DHT22;37929;53.218;6.548;2022-12-04T21:30:01;4.80;99.90
51902;DHT22;37929;53.218;6.548;2022-12-04T21:32:26;4.80;99.90
51902;DHT22;37929;53.218;6.548;2022-12-04T21:34:52;4.80;99.90
51902;DHT22;37929;53.218;6.548;2022-12-04T21:37:18;4.90;99.90
51902;DHT22;37929;53.218;6.548;2022-12-04T21:39:44;4.90;99.90
